sensor_id;sensor_type;location;lat;lon;timestamp;temperature;humidity
2997;DHT22;1508;48.744;9.110;2023-01-23T00:00:06;0.00;99.90
2997;DHT22;1508;48.744;9.110;2023-01-23T00:02:55;0.00;99.90
2997;DHT22;1508;48.744;9.110;2023-01-23T00:05:41;0.00;99.90
2997;DHT22;1508;48.744;9.110;2023-01-23T00:08:27;0.10;99.90
2997;DHT22;1508;48.744;9.110;2023-01-23T00:11:25;0.10;99.90
2997;DHT22;1508;48.744;9.110;2023-01-23T00:14:11;0.00;99.90
2997;DHT22;1508;48.744;9.110;2023-01-23T00:16:57;-0.20;99.90
2997;DHT22;1508;48.744;9.110;2023-01-23T00:19:43;-0.10;99.90
2997;DHT22;1508;48.744;9.110;2023-01-23T00:22:29;0.00;99.90
2997;DHT22;1508;48.744;9.110;2023-01-23T00:25:15;0.00;99.90
2997;DHT22;1508;48.744;9.110;2023-01-23T00:28:01;-0.10;99.90
2997;DHT22;1508;48.744;9.110;2023-01-23T00:30:47;0.00;99.90
2997;DHT22;1508;48.744;9.110;2023-01-23T00:33:34;0.00;99.90
2997;DHT22;1508;48.744;9.110;2023-01-23T00:36:19;-0.10;99.90
2997;DHT22;1508;48.744;9.110;2023-01-23T00:39:08;-0.30;99.90
2997;DHT22;1508;48.744;9.110;2023-01-23T00:41:54;-0.20;99.90
2997;DHT22;1508;48.744;9.110;2023-01-23T00:44:40;-0.20;99.90
2997;DHT22;1508;48.744;9.110;2023-01-23T00:47:26;-0.10;99.90
2997;DHT22;1508;48.744;9.110;2023-01-23T00:50:11;-0.10;99.90
2997;DHT22;1508;48.744;9.110;2023-01-23T00:52:57;-0.20;99.90
2997;DHT22;1508;48.744;9.110;2023-01-23T00:55:43;-0.20;99.90
2997;DHT22;1508;48.744;9.110;2023-01-23T00:58:29;-0.30;99.90
2997;DHT22;1508;48.744;9.110;2023-01-23T01:01:15;-0.30;99.90
2997;DHT22;1508;48.744;9.110;2023-01-23T01:04:02;-0.30;99.90
2997;DHT22;1508;48.744;9.110;2023-01-23T01:06:48;-0.40;99.90
2997;DHT22;1508;48.744;9.110;2023-01-23T01:09:33;-0.50;99.90
2997;DHT22;1508;48.744;9.110;2023-01-23T01:12:19;-0.50;99.90
2997;DHT22;1508;48.744;9.110;2023-01-23T01:15:06;-0.50;99.90
2997;DHT22;1508;48.744;9.110;2023-01-23T01:17:52;-0.50;99.90
2997;DHT22;1508;48.744;9.110;2023-01-23T01:20:40;-0.50;99.90
2997;DHT22;1508;48.744;9.110;2023-01-23T01:23:26;-0.50;99.90
2997;DHT22;1508;48.744;9.110;2023-01-23T01:26:12;-0.40;99.90
2997;DHT22;1508;48.744;9.110;2023-01-23T01:28:58;-0.40;99.90
2997;DHT22;1508;48.744;9.110;2023-01-23T01:31:44;-0.30;99.90
2997;DHT22;1508;48.744;9.110;2023-01-23T01:34:29;-0.30;99.90
2997;DHT22;1508;48.744;9.110;2023-01-23T01:37:15;-0.30;99.90
2997;DHT22;1508;48.744;9.110;2023-01-23T01:40:02;-0.20;99.90
2997;DHT22;1508;48.744;9.110;2023-01-23T01:42:55;-0.20;99.90
2997;DHT22;1508;48.744;9.110;2023-01-23T01:48:59;-0.20;99.90
2997;DHT22;1508;48.744;9.110;2023-01-23T01:51:51;-0.20;99.90
2997;DHT22;1508;48.744;9.110;2023-01-23T01:55:02;-0.20;99.90
2997;DHT22;1508;48.744;9.110;2023-01-23T01:57:46;-0.10;99.90
2997;DHT22;1508;48.744;9.110;2023-01-23T02:00:32;-0.10;99.90
2997;DHT22;1508;48.744;9.110;2023-01-23T02:03:18;-0.10;99.90
2997;DHT22;1508;48.744;9.110;2023-01-23T02:06:05;-0.10;99.90
2997;DHT22;1508;48.744;9.110;2023-01-23T02:09:02;0.00;99.90
2997;DHT22;1508;48.744;9.110;2023-01-23T02:11:49;0.00;99.90
2997;DHT22;1508;48.744;9.110;2023-01-23T02:14:35;0.00;99.90
2997;DHT22;1508;48.744;9.110;2023-01-23T02:17:21;0.00;99.90
2997;DHT22;1508;48.744;9.110;2023-01-23T02:20:21;0.00;99.90
2997;DHT22;1508;48.744;9.110;2023-01-23T02:26:03;0.10;99.90
2997;DHT22;1508;48.744;9.110;2023-01-23T02:28:51;0.00;99.90
2997;DHT22;1508;48.744;9.110;2023-01-23T02:31:37;0.10;99.90
2997;DHT22;1508;48.744;9.110;2023-01-23T02:34:23;0.10;99.90
2997;DHT22;1508;48.744;9.110;2023-01-23T02:37:09;0.10;99.90
2997;DHT22;1508;48.744;9.110;2023-01-23T02:39:55;0.10;99.90
2997;DHT22;1508;48.744;9.110;2023-01-23T02:42:43;0.00;99.90
2997;DHT22;1508;48.744;9.110;2023-01-23T02:45:30;0.00;99.90
2997;DHT22;1508;48.744;9.110;2023-01-23T02:48:15;0.00;99.90
2997;DHT22;1508;48.744;9.110;2023-01-23T02:51:01;0.00;99.90
2997;DHT22;1508;48.744;9.110;2023-01-23T02:53:48;0.00;99.90
2997;DHT22;1508;48.744;9.110;2023-01-23T02:56:34;-0.10;99.90
2997;DHT22;1508;48.744;9.110;2023-01-23T02:59:19;-0.10;99.90
2997;DHT22;1508;48.744;9.110;2023-01-23T03:02:05;-0.10;99.90
2997;DHT22;1508;48.744;9.110;2023-01-23T03:04:51;0.00;99.90
2997;DHT22;1508;48.744;9.110;2023-01-23T03:07:37;0.00;99.90
2997;DHT22;1508;48.744;9.110;2023-01-23T03:10:23;0.00;99.90
2997;DHT22;1508;48.744;9.110;2023-01-23T03:13:09;0.00;99.90
2997;DHT22;1508;48.744;9.110;2023-01-23T03:15:55;0.00;99.90
2997;DHT22;1508;48.744;9.110;2023-01-23T03:18:41;0.10;99.90
2997;DHT22;1508;48.744;9.110;2023-01-23T03:21:27;0.10;99.90
2997;DHT22;1508;48.744;9.110;2023-01-23T03:24:13;0.10;99.90
2997;DHT22;1508;48.744;9.110;2023-01-23T03:26:59;0.10;99.90
2997;DHT22;1508;48.744;9.110;2023-01-23T03:29:45;0.10;99.90
2997;DHT22;1508;48.744;9.110;2023-01-23T03:32:31;0.10;99.90
2997;DHT22;1508;48.744;9.110;2023-01-23T03:35:18;0.10;99.90
2997;DHT22;1508;48.744;9.110;2023-01-23T03:38:04;0.10;99.90
2997;DHT22;1508;48.744;9.110;2023-01-23T03:40:50;0.00;99.90
2997;DHT22;1508;48.744;9.110;2023-01-23T03:43:35;-0.10;99.90
2997;DHT22;1508;48.744;9.110;2023-01-23T03:46:21;-0.10;99.90
2997;DHT22;1508;48.744;9.110;2023-01-23T03:49:07;-0.20;99.90
2997;DHT22;1508;48.744;9.110;2023-01-23T03:51:53;-0.10;99.90
2997;DHT22;1508;48.744;9.110;2023-01-23T03:54:39;-0.10;99.90
2997;DHT22;1508;48.744;9.110;2023-01-23T03:57:25;0.00;99.90
2997;DHT22;1508;48.744;9.110;2023-01-23T04:00:11;0.00;99.90
2997;DHT22;1508;48.744;9.110;2023-01-23T04:02:57;0.10;99.90
2997;DHT22;1508;48.744;9.110;2023-01-23T04:05:43;0.10;99.90
2997;DHT22;1508;48.744;9.110;2023-01-23T04:08:28;0.10;99.90
2997;DHT22;1508;48.744;9.110;2023-01-23T04:11:14;0.00;99.90
2997;DHT22;1508;48.744;9.110;2023-01-23T04:14:00;0.10;99.90
2997;DHT22;1508;48.744;9.110;2023-01-23T04:16:46;0.00;99.90
2997;DHT22;1508;48.744;9.110;2023-01-23T04:19:33;0.00;99.90
2997;DHT22;1508;48.744;9.110;2023-01-23T04:22:18;0.00;99.90
2997;DHT22;1508;48.744;9.110;2023-01-23T04:25:05;0.00;99.90
2997;DHT22;1508;48.744;9.110;2023-01-23T04:27:51;0.00;99.90
2997;DHT22;1508;48.744;9.110;2023-01-23T04:30:37;0.00;99.90
2997;DHT22;1508;48.744;9.110;2023-01-23T04:33:23;0.00;99.90
2997;DHT22;1508;48.744;9.110;2023-01-23T04:36:09;0.10;99.90
2997;DHT22;1508;48.744;9.110;2023-01-23T04:38:55;0.10;99.90
2997;DHT22;1508;48.744;9.110;2023-01-23T04:41:41;0.00;99.90
2997;DHT22;1508;48.744;9.110;2023-01-23T04:44:27;0.00;99.90
2997;DHT22;1508;48.744;9.110;2023-01-23T04:47:13;0.00;99.90
2997;DHT22;1508;48.744;9.110;2023-01-23T04:49:59;0.00;99.90
2997;DHT22;1508;48.744;9.110;2023-01-23T04:52:45;0.00;99.90
2997;DHT22;1508;48.744;9.110;2023-01-23T04:55:31;0.00;99.90
2997;DHT22;1508;48.744;9.110;2023-01-23T04:58:18;-0.10;99.90
2997;DHT22;1508;48.744;9.110;2023-01-23T05:01:05;-0.10;99.90
2997;DHT22;1508;48.744;9.110;2023-01-23T05:03:52;-0.10;99.90
2997;DHT22;1508;48.744;9.110;2023-01-23T05:06:38;0.00;99.90
2997;DHT22;1508;48.744;9.110;2023-01-23T05:09:24;0.00;99.90
2997;DHT22;1508;48.744;9.110;2023-01-23T05:12:10;0.00;99.90
2997;DHT22;1508;48.744;9.110;2023-01-23T05:14:55;0.10;99.90
2997;DHT22;1508;48.744;9.110;2023-01-23T05:17:42;0.10;99.90
2997;DHT22;1508;48.744;9.110;2023-01-23T05:20:28;0.10;99.90
2997;DHT22;1508;48.744;9.110;2023-01-23T05:23:14;0.10;99.90
2997;DHT22;1508;48.744;9.110;2023-01-23T05:25:59;0.10;99.90
2997;DHT22;1508;48.744;9.110;2023-01-23T05:28:45;0.00;99.90
2997;DHT22;1508;48.744;9.110;2023-01-23T05:31:31;0.10;99.90
2997;DHT22;1508;48.744;9.110;2023-01-23T05:34:17;0.10;99.90
2997;DHT22;1508;48.744;9.110;2023-01-23T05:37:04;0.00;99.90
2997;DHT22;1508;48.744;9.110;2023-01-23T05:39:50;0.00;99.90
2997;DHT22;1508;48.744;9.110;2023-01-23T05:42:36;0.00;99.90
2997;DHT22;1508;48.744;9.110;2023-01-23T05:45:21;-0.10;99.90
2997;DHT22;1508;48.744;9.110;2023-01-23T05:48:07;-0.10;99.90
2997;DHT22;1508;48.744;9.110;2023-01-23T05:50:53;0.00;99.90
2997;DHT22;1508;48.744;9.110;2023-01-23T05:53:39;0.00;99.90
2997;DHT22;1508;48.744;9.110;2023-01-23T05:56:25;0.00;99.90
2997;DHT22;1508;48.744;9.110;2023-01-23T05:59:11;-0.10;99.90
2997;DHT22;1508;48.744;9.110;2023-01-23T06:01:57;0.00;99.90
2997;DHT22;1508;48.744;9.110;2023-01-23T06:04:46;0.00;99.90
2997;DHT22;1508;48.744;9.110;2023-01-23T06:07:32;0.00;99.90
2997;DHT22;1508;48.744;9.110;2023-01-23T06:10:19;0.00;99.90
2997;DHT22;1508;48.744;9.110;2023-01-23T06:13:05;0.10;99.90
2997;DHT22;1508;48.744;9.110;2023-01-23T06:15:51;0.10;99.90
2997;DHT22;1508;48.744;9.110;2023-01-23T06:18:37;0.10;99.90
2997;DHT22;1508;48.744;9.110;2023-01-23T06:21:23;0.00;99.90
2997;DHT22;1508;48.744;9.110;2023-01-23T06:24:09;0.10;99.90
2997;DHT22;1508;48.744;9.110;2023-01-23T06:26:55;0.10;99.90
2997;DHT22;1508;48.744;9.110;2023-01-23T06:29:40;0.10;99.90
2997;DHT22;1508;48.744;9.110;2023-01-23T06:32:26;0.10;99.90
2997;DHT22;1508;48.744;9.110;2023-01-23T06:35:12;0.10;99.90
2997;DHT22;1508;48.744;9.110;2023-01-23T06:37:58;0.20;99.90
2997;DHT22;1508;48.744;9.110;2023-01-23T06:40:44;0.10;99.90
2997;DHT22;1508;48.744;9.110;2023-01-23T06:43:30;0.10;99.90
2997;DHT22;1508;48.744;9.110;2023-01-23T06:46:15;0.10;99.90
2997;DHT22;1508;48.744;9.110;2023-01-23T06:49:02;0.10;99.90
2997;DHT22;1508;48.744;9.110;2023-01-23T06:51:48;0.10;99.90
2997;DHT22;1508;48.744;9.110;2023-01-23T06:54:34;0.10;99.90
2997;DHT22;1508;48.744;9.110;2023-01-23T06:57:20;0.10;99.90
2997;DHT22;1508;48.744;9.110;2023-01-23T07:00:07;0.10;99.90
2997;DHT22;1508;48.744;9.110;2023-01-23T07:02:53;-0.10;99.90
2997;DHT22;1508;48.744;9.110;2023-01-23T07:05:39;0.00;99.90
2997;DHT22;1508;48.744;9.110;2023-01-23T07:08:25;0.00;99.90
2997;DHT22;1508;48.744;9.110;2023-01-23T07:11:10;0.10;99.90
2997;DHT22;1508;48.744;9.110;2023-01-23T07:13:56;0.10;99.90
2997;DHT22;1508;48.744;9.110;2023-01-23T07:16:42;0.10;99.90
2997;DHT22;1508;48.744;9.110;2023-01-23T07:19:28;0.10;99.90
2997;DHT22;1508;48.744;9.110;2023-01-23T07:22:18;0.10;99.90
2997;DHT22;1508;48.744;9.110;2023-01-23T07:25:04;0.10;99.90
2997;DHT22;1508;48.744;9.110;2023-01-23T07:27:50;0.10;99.90
2997;DHT22;1508;48.744;9.110;2023-01-23T07:30:36;0.20;99.90
2997;DHT22;1508;48.744;9.110;2023-01-23T07:33:22;0.20;99.90
2997;DHT22;1508;48.744;9.110;2023-01-23T07:36:08;0.30;99.90
2997;DHT22;1508;48.744;9.110;2023-01-23T07:38:55;0.30;99.90
2997;DHT22;1508;48.744;9.110;2023-01-23T07:41:41;0.30;99.90
2997;DHT22;1508;48.744;9.110;2023-01-23T07:44:27;0.20;99.90
2997;DHT22;1508;48.744;9.110;2023-01-23T07:47:12;0.20;99.90
2997;DHT22;1508;48.744;9.110;2023-01-23T07:49:58;0.20;99.90
2997;DHT22;1508;48.744;9.110;2023-01-23T07:52:44;0.10;99.90
2997;DHT22;1508;48.744;9.110;2023-01-23T07:55:30;0.20;99.90
2997;DHT22;1508;48.744;9.110;2023-01-23T07:58:16;0.20;99.90
2997;DHT22;1508;48.744;9.110;2023-01-23T08:01:11;0.30;99.90
2997;DHT22;1508;48.744;9.110;2023-01-23T08:03:57;0.40;99.90
2997;DHT22;1508;48.744;9.110;2023-01-23T08:06:43;0.40;99.90
2997;DHT22;1508;48.744;9.110;2023-01-23T08:09:29;0.40;99.90
2997;DHT22;1508;48.744;9.110;2023-01-23T08:12:14;0.40;99.90
2997;DHT22;1508;48.744;9.110;2023-01-23T08:15:00;0.50;99.90
2997;DHT22;1508;48.744;9.110;2023-01-23T08:17:46;0.50;99.90
2997;DHT22;1508;48.744;9.110;2023-01-23T08:20:32;0.50;99.90
2997;DHT22;1508;48.744;9.110;2023-01-23T08:23:18;0.40;99.90
2997;DHT22;1508;48.744;9.110;2023-01-23T08:26:05;0.40;99.90
2997;DHT22;1508;48.744;9.110;2023-01-23T08:28:51;0.30;99.90
2997;DHT22;1508;48.744;9.110;2023-01-23T08:31:38;0.30;99.90
2997;DHT22;1508;48.744;9.110;2023-01-23T08:34:23;0.30;99.90
2997;DHT22;1508;48.744;9.110;2023-01-23T08:37:09;0.30;99.90
2997;DHT22;1508;48.744;9.110;2023-01-23T08:39:55;0.40;99.90
2997;DHT22;1508;48.744;9.110;2023-01-23T08:42:41;0.30;99.90
2997;DHT22;1508;48.744;9.110;2023-01-23T08:45:27;0.30;99.90
2997;DHT22;1508;48.744;9.110;2023-01-23T08:48:14;0.40;99.90
2997;DHT22;1508;48.744;9.110;2023-01-23T08:51:06;0.40;99.90
2997;DHT22;1508;48.744;9.110;2023-01-23T08:53:52;0.30;99.90
2997;DHT22;1508;48.744;9.110;2023-01-23T08:56:38;0.30;99.90
2997;DHT22;1508;48.744;9.110;2023-01-23T08:59:24;0.40;99.90
2997;DHT22;1508;48.744;9.110;2023-01-23T09:02:11;0.40;99.90
2997;DHT22;1508;48.744;9.110;2023-01-23T09:04:57;0.40;99.90
2997;DHT22;1508;48.744;9.110;2023-01-23T09:07:43;0.50;99.90
2997;DHT22;1508;48.744;9.110;2023-01-23T09:10:29;0.60;99.90
2997;DHT22;1508;48.744;9.110;2023-01-23T09:13:14;0.70;99.90
2997;DHT22;1508;48.744;9.110;2023-01-23T09:16:01;0.70;99.90
2997;DHT22;1508;48.744;9.110;2023-01-23T09:18:47;0.80;99.90
2997;DHT22;1508;48.744;9.110;2023-01-23T09:21:33;0.90;99.90
2997;DHT22;1508;48.744;9.110;2023-01-23T09:24:19;1.00;99.90
2997;DHT22;1508;48.744;9.110;2023-01-23T09:27:04;1.10;99.90
2997;DHT22;1508;48.744;9.110;2023-01-23T09:29:50;1.10;99.90
2997;DHT22;1508;48.744;9.110;2023-01-23T09:32:36;1.20;99.90
2997;DHT22;1508;48.744;9.110;2023-01-23T09:35:22;1.20;99.90
2997;DHT22;1508;48.744;9.110;2023-01-23T09:38:08;1.10;99.90
2997;DHT22;1508;48.744;9.110;2023-01-23T09:40:56;0.70;99.90
2997;DHT22;1508;48.744;9.110;2023-01-23T09:49:53;0.80;99.90
2997;DHT22;1508;48.744;9.110;2023-01-23T09:52:54;0.80;99.90
2997;DHT22;1508;48.744;9.110;2023-01-23T09:55:52;0.70;99.90
2997;DHT22;1508;48.744;9.110;2023-01-23T10:01:35;0.70;99.90
2997;DHT22;1508;48.744;9.110;2023-01-23T10:04:21;0.60;99.90
2997;DHT22;1508;48.744;9.110;2023-01-23T10:23:24;0.90;99.90
2997;DHT22;1508;48.744;9.110;2023-01-23T10:26:22;1.10;99.90
2997;DHT22;1508;48.744;9.110;2023-01-23T10:29:31;1.30;99.90
2997;DHT22;1508;48.744;9.110;2023-01-23T10:32:30;1.20;99.90
2997;DHT22;1508;48.744;9.110;2023-01-23T10:41:41;1.40;99.90
2997;DHT22;1508;48.744;9.110;2023-01-23T10:44:27;1.50;99.90
2997;DHT22;1508;48.744;9.110;2023-01-23T10:47:26;1.10;99.90
2997;DHT22;1508;48.744;9.110;2023-01-23T10:50:14;0.90;99.90
2997;DHT22;1508;48.744;9.110;2023-01-23T10:53:10;0.90;99.90
2997;DHT22;1508;48.744;9.110;2023-01-23T10:56:01;0.90;99.90
2997;DHT22;1508;48.744;9.110;2023-01-23T10:58:47;0.90;99.90
2997;DHT22;1508;48.744;9.110;2023-01-23T11:01:34;1.00;99.90
2997;DHT22;1508;48.744;9.110;2023-01-23T11:04:23;1.20;99.90
2997;DHT22;1508;48.744;9.110;2023-01-23T11:07:25;1.20;99.90
2997;DHT22;1508;48.744;9.110;2023-01-23T11:12:56;1.20;99.90
2997;DHT22;1508;48.744;9.110;2023-01-23T11:15:47;1.00;99.90
2997;DHT22;1508;48.744;9.110;2023-01-23T11:18:37;0.90;99.90
2997;DHT22;1508;48.744;9.110;2023-01-23T11:21:29;0.90;99.90
2997;DHT22;1508;48.744;9.110;2023-01-23T11:24:35;0.90;99.90
2997;DHT22;1508;48.744;9.110;2023-01-23T11:27:24;0.80;99.90
2997;DHT22;1508;48.744;9.110;2023-01-23T11:30:27;0.80;99.90
2997;DHT22;1508;48.744;9.110;2023-01-23T11:33:29;0.80;99.90
2997;DHT22;1508;48.744;9.110;2023-01-23T11:39:24;0.90;99.90
2997;DHT22;1508;48.744;9.110;2023-01-23T11:42:16;0.90;99.90
2997;DHT22;1508;48.744;9.110;2023-01-23T11:45:01;0.70;99.90
2997;DHT22;1508;48.744;9.110;2023-01-23T11:51:19;0.70;99.90
2997;DHT22;1508;48.744;9.110;2023-01-23T11:54:37;0.80;99.90
2997;DHT22;1508;48.744;9.110;2023-01-23T11:57:44;0.70;99.90
2997;DHT22;1508;48.744;9.110;2023-01-23T12:01:17;0.70;99.90
2997;DHT22;1508;48.744;9.110;2023-01-23T12:07:21;0.70;99.90
2997;DHT22;1508;48.744;9.110;2023-01-23T12:19:23;0.80;99.90
2997;DHT22;1508;48.744;9.110;2023-01-23T12:40:18;1.10;99.90
2997;DHT22;1508;48.744;9.110;2023-01-23T12:43:36;1.00;99.90
2997;DHT22;1508;48.744;9.110;2023-01-23T12:55:24;1.20;99.90
2997;DHT22;1508;48.744;9.110;2023-01-23T12:58:15;1.30;99.90
2997;DHT22;1508;48.744;9.110;2023-01-23T13:04:14;1.20;99.90
2997;DHT22;1508;48.744;9.110;2023-01-23T13:13:08;1.30;99.90
2997;DHT22;1508;48.744;9.110;2023-01-23T13:18:54;1.60;99.90
2997;DHT22;1508;48.744;9.110;2023-01-23T13:27:57;1.40;99.90
2997;DHT22;1508;48.744;9.110;2023-01-23T13:30:43;1.40;99.90
2997;DHT22;1508;48.744;9.110;2023-01-23T13:36:33;1.70;99.90
2997;DHT22;1508;48.744;9.110;2023-01-23T13:39:26;1.80;99.90
2997;DHT22;1508;48.744;9.110;2023-01-23T13:45:21;1.60;99.90
2997;DHT22;1508;48.744;9.110;2023-01-23T13:51:25;1.50;99.90
2997;DHT22;1508;48.744;9.110;2023-01-23T13:54:19;1.70;99.90
2997;DHT22;1508;48.744;9.110;2023-01-23T13:57:06;1.70;99.90
2997;DHT22;1508;48.744;9.110;2023-01-23T13:59:52;1.50;99.90
2997;DHT22;1508;48.744;9.110;2023-01-23T14:02:42;1.40;99.90
2997;DHT22;1508;48.744;9.110;2023-01-23T14:05:31;1.50;99.90
2997;DHT22;1508;48.744;9.110;2023-01-23T14:08:21;1.60;99.90
2997;DHT22;1508;48.744;9.110;2023-01-23T14:11:15;1.60;99.90
2997;DHT22;1508;48.744;9.110;2023-01-23T14:14:02;1.50;99.90
2997;DHT22;1508;48.744;9.110;2023-01-23T14:16:49;1.50;99.90
2997;DHT22;1508;48.744;9.110;2023-01-23T14:19:46;1.50;99.90
2997;DHT22;1508;48.744;9.110;2023-01-23T14:22:34;1.40;99.90
2997;DHT22;1508;48.744;9.110;2023-01-23T14:25:20;1.30;99.90
2997;DHT22;1508;48.744;9.110;2023-01-23T14:28:06;1.30;99.90
2997;DHT22;1508;48.744;9.110;2023-01-23T14:30:57;1.40;99.90
2997;DHT22;1508;48.744;9.110;2023-01-23T14:33:43;1.40;99.90
2997;DHT22;1508;48.744;9.110;2023-01-23T14:36:32;1.40;99.90
2997;DHT22;1508;48.744;9.110;2023-01-23T14:39:27;1.40;99.90
2997;DHT22;1508;48.744;9.110;2023-01-23T14:42:25;1.30;99.90
2997;DHT22;1508;48.744;9.110;2023-01-23T14:45:13;1.30;99.90
2997;DHT22;1508;48.744;9.110;2023-01-23T14:47:59;1.30;99.90
2997;DHT22;1508;48.744;9.110;2023-01-23T14:50:45;1.30;99.90
2997;DHT22;1508;48.744;9.110;2023-01-23T14:53:31;1.30;99.90
2997;DHT22;1508;48.744;9.110;2023-01-23T14:56:17;1.30;99.90
2997;DHT22;1508;48.744;9.110;2023-01-23T14:59:05;1.20;99.90
2997;DHT22;1508;48.744;9.110;2023-01-23T15:01:57;1.30;99.90
2997;DHT22;1508;48.744;9.110;2023-01-23T15:04:43;1.30;99.90
2997;DHT22;1508;48.744;9.110;2023-01-23T15:13:27;1.40;99.90
2997;DHT22;1508;48.744;9.110;2023-01-23T15:16:25;1.40;99.90
2997;DHT22;1508;48.744;9.110;2023-01-23T15:19:20;1.40;99.90
2997;DHT22;1508;48.744;9.110;2023-01-23T15:22:19;1.50;99.90
2997;DHT22;1508;48.744;9.110;2023-01-23T15:25:29;1.40;99.90
2997;DHT22;1508;48.744;9.110;2023-01-23T15:28:40;1.40;99.90
2997;DHT22;1508;48.744;9.110;2023-01-23T15:31:29;1.40;99.90
2997;DHT22;1508;48.744;9.110;2023-01-23T15:40:00;1.40;99.90
2997;DHT22;1508;48.744;9.110;2023-01-23T15:43:10;1.50;99.90
2997;DHT22;1508;48.744;9.110;2023-01-23T15:45:56;1.50;99.90
2997;DHT22;1508;48.744;9.110;2023-01-23T15:48:42;1.40;99.90
2997;DHT22;1508;48.744;9.110;2023-01-23T15:51:27;1.40;99.90
2997;DHT22;1508;48.744;9.110;2023-01-23T15:54:22;1.40;99.90
2997;DHT22;1508;48.744;9.110;2023-01-23T15:57:11;1.30;99.90
2997;DHT22;1508;48.744;9.110;2023-01-23T15:59:57;1.30;99.90
2997;DHT22;1508;48.744;9.110;2023-01-23T16:02:43;1.30;99.90
2997;DHT22;1508;48.744;9.110;2023-01-23T16:05:33;1.30;99.90
2997;DHT22;1508;48.744;9.110;2023-01-23T16:08:20;1.30;99.90
2997;DHT22;1508;48.744;9.110;2023-01-23T16:11:06;1.30;99.90
2997;DHT22;1508;48.744;9.110;2023-01-23T16:13:52;1.30;99.90
2997;DHT22;1508;48.744;9.110;2023-01-23T16:16:37;1.30;99.90
2997;DHT22;1508;48.744;9.110;2023-01-23T16:19:23;1.20;99.90
2997;DHT22;1508;48.744;9.110;2023-01-23T16:22:13;1.20;99.90
2997;DHT22;1508;48.744;9.110;2023-01-23T16:24:59;1.30;99.90
2997;DHT22;1508;48.744;9.110;2023-01-23T16:27:45;1.30;99.90
2997;DHT22;1508;48.744;9.110;2023-01-23T16:30:31;1.30;99.90
2997;DHT22;1508;48.744;9.110;2023-01-23T16:33:17;1.20;99.90
2997;DHT22;1508;48.744;9.110;2023-01-23T16:36:04;1.20;99.90
2997;DHT22;1508;48.744;9.110;2023-01-23T16:38:52;1.20;99.90
2997;DHT22;1508;48.744;9.110;2023-01-23T16:41:38;1.20;99.90
2997;DHT22;1508;48.744;9.110;2023-01-23T16:44:25;1.20;99.90
2997;DHT22;1508;48.744;9.110;2023-01-23T16:47:11;1.30;99.90
2997;DHT22;1508;48.744;9.110;2023-01-23T16:49:57;1.40;99.90
2997;DHT22;1508;48.744;9.110;2023-01-23T16:52:54;1.30;99.90
2997;DHT22;1508;48.744;9.110;2023-01-23T16:55:44;1.40;99.90
2997;DHT22;1508;48.744;9.110;2023-01-23T16:58:33;1.30;99.90
2997;DHT22;1508;48.744;9.110;2023-01-23T17:01:22;1.40;99.90
2997;DHT22;1508;48.744;9.110;2023-01-23T17:04:11;1.40;99.90
2997;DHT22;1508;48.744;9.110;2023-01-23T17:06:58;1.40;99.90
2997;DHT22;1508;48.744;9.110;2023-01-23T17:09:44;1.30;99.90
2997;DHT22;1508;48.744;9.110;2023-01-23T17:12:32;1.30;99.90
2997;DHT22;1508;48.744;9.110;2023-01-23T17:15:20;1.20;99.90
2997;DHT22;1508;48.744;9.110;2023-01-23T17:18:13;1.20;99.90
2997;DHT22;1508;48.744;9.110;2023-01-23T17:21:04;1.20;99.90
2997;DHT22;1508;48.744;9.110;2023-01-23T17:23:51;1.20;99.90
2997;DHT22;1508;48.744;9.110;2023-01-23T17:26:37;1.20;99.90
2997;DHT22;1508;48.744;9.110;2023-01-23T17:29:22;1.10;99.90
2997;DHT22;1508;48.744;9.110;2023-01-23T17:32:22;1.20;99.90
2997;DHT22;1508;48.744;9.110;2023-01-23T17:35:20;1.20;99.90
2997;DHT22;1508;48.744;9.110;2023-01-23T17:38:17;1.20;99.90
2997;DHT22;1508;48.744;9.110;2023-01-23T17:41:04;1.20;99.90
2997;DHT22;1508;48.744;9.110;2023-01-23T17:43:50;1.10;99.90
2997;DHT22;1508;48.744;9.110;2023-01-23T17:46:36;1.20;99.90
2997;DHT22;1508;48.744;9.110;2023-01-23T17:49:29;1.20;99.90
2997;DHT22;1508;48.744;9.110;2023-01-23T17:52:15;1.20;99.90
2997;DHT22;1508;48.744;9.110;2023-01-23T17:55:01;1.10;99.90
2997;DHT22;1508;48.744;9.110;2023-01-23T17:57:47;1.10;99.90
2997;DHT22;1508;48.744;9.110;2023-01-23T18:00:33;1.10;99.90
2997;DHT22;1508;48.744;9.110;2023-01-23T18:03:20;1.10;99.90
2997;DHT22;1508;48.744;9.110;2023-01-23T18:06:07;1.10;99.90
2997;DHT22;1508;48.744;9.110;2023-01-23T18:08:52;1.10;99.90
2997;DHT22;1508;48.744;9.110;2023-01-23T18:11:42;1.20;99.90
2997;DHT22;1508;48.744;9.110;2023-01-23T18:14:40;1.20;99.90
2997;DHT22;1508;48.744;9.110;2023-01-23T18:17:53;1.20;99.90
2997;DHT22;1508;48.744;9.110;2023-01-23T18:20:40;1.20;99.90
2997;DHT22;1508;48.744;9.110;2023-01-23T18:23:28;1.20;99.90
2997;DHT22;1508;48.744;9.110;2023-01-23T18:41:21;1.20;99.90
2997;DHT22;1508;48.744;9.110;2023-01-23T18:44:17;1.30;99.90
2997;DHT22;1508;48.744;9.110;2023-01-23T18:47:13;1.20;99.90
2997;DHT22;1508;48.744;9.110;2023-01-23T18:49:59;1.10;99.90
2997;DHT22;1508;48.744;9.110;2023-01-23T18:56:09;1.20;99.90
2997;DHT22;1508;48.744;9.110;2023-01-23T18:59:02;1.20;99.90
2997;DHT22;1508;48.744;9.110;2023-01-23T19:01:53;1.20;99.90
2997;DHT22;1508;48.744;9.110;2023-01-23T19:04:59;1.20;99.90
2997;DHT22;1508;48.744;9.110;2023-01-23T19:07:54;1.20;99.90
2997;DHT22;1508;48.744;9.110;2023-01-23T19:10:42;1.20;99.90
2997;DHT22;1508;48.744;9.110;2023-01-23T19:13:42;1.20;99.90
2997;DHT22;1508;48.744;9.110;2023-01-23T19:16:31;1.10;99.90
2997;DHT22;1508;48.744;9.110;2023-01-23T19:19:51;1.10;99.90
2997;DHT22;1508;48.744;9.110;2023-01-23T19:23:31;1.20;99.90
2997;DHT22;1508;48.744;9.110;2023-01-23T19:25:56;1.20;99.90
2997;DHT22;1508;48.744;9.110;2023-01-23T19:28:43;1.20;99.90
2997;DHT22;1508;48.744;9.110;2023-01-23T19:31:31;1.20;99.90
2997;DHT22;1508;48.744;9.110;2023-01-23T19:34:17;1.20;99.90
2997;DHT22;1508;48.744;9.110;2023-01-23T19:37:03;1.20;99.90
2997;DHT22;1508;48.744;9.110;2023-01-23T19:39:48;1.20;99.90
2997;DHT22;1508;48.744;9.110;2023-01-23T19:42:39;1.20;99.90
2997;DHT22;1508;48.744;9.110;2023-01-23T19:45:25;1.30;99.90
2997;DHT22;1508;48.744;9.110;2023-01-23T19:48:12;1.30;99.90
2997;DHT22;1508;48.744;9.110;2023-01-23T19:50:57;1.30;99.90
2997;DHT22;1508;48.744;9.110;2023-01-23T19:53:44;1.20;99.90
2997;DHT22;1508;48.744;9.110;2023-01-23T19:56:30;1.30;99.90
2997;DHT22;1508;48.744;9.110;2023-01-23T19:59:16;1.30;99.90
2997;DHT22;1508;48.744;9.110;2023-01-23T20:02:01;1.40;99.90
2997;DHT22;1508;48.744;9.110;2023-01-23T20:04:47;1.30;99.90
2997;DHT22;1508;48.744;9.110;2023-01-23T20:07:33;1.30;99.90
2997;DHT22;1508;48.744;9.110;2023-01-23T20:10:19;1.30;99.90
2997;DHT22;1508;48.744;9.110;2023-01-23T20:13:05;1.30;99.90
2997;DHT22;1508;48.744;9.110;2023-01-23T20:15:51;1.30;99.90
2997;DHT22;1508;48.744;9.110;2023-01-23T20:18:37;1.40;99.90
2997;DHT22;1508;48.744;9.110;2023-01-23T20:21:24;1.40;99.90
2997;DHT22;1508;48.744;9.110;2023-01-23T20:24:10;1.30;99.90
2997;DHT22;1508;48.744;9.110;2023-01-23T20:26:56;1.40;99.90
2997;DHT22;1508;48.744;9.110;2023-01-23T20:29:42;1.40;99.90
2997;DHT22;1508;48.744;9.110;2023-01-23T20:32:31;1.40;99.90
2997;DHT22;1508;48.744;9.110;2023-01-23T20:35:17;1.50;99.90
2997;DHT22;1508;48.744;9.110;2023-01-23T20:38:03;1.50;99.90
2997;DHT22;1508;48.744;9.110;2023-01-23T20:40:49;1.60;99.90
2997;DHT22;1508;48.744;9.110;2023-01-23T20:43:35;1.60;99.90
2997;DHT22;1508;48.744;9.110;2023-01-23T20:46:21;1.50;99.90
2997;DHT22;1508;48.744;9.110;2023-01-23T20:49:08;1.60;99.90
2997;DHT22;1508;48.744;9.110;2023-01-23T20:51:55;1.70;99.90
2997;DHT22;1508;48.744;9.110;2023-01-23T20:54:40;1.60;99.90
2997;DHT22;1508;48.744;9.110;2023-01-23T20:57:26;1.60;99.90
2997;DHT22;1508;48.744;9.110;2023-01-23T21:00:12;1.60;99.90